createdAt,value
2022-09-12T00:01:15.164Z,14.54
2022-09-12T00:03:42.199Z,14.55
2022-09-12T00:06:29.331Z,14.58
2022-09-12T00:08:57.702Z,14.57
2022-09-12T00:11:25.203Z,14.59
2022-09-12T00:13:52.389Z,14.55
2022-09-12T00:16:20.465Z,14.61
2022-09-12T00:18:47.986Z,14.47
2022-09-12T00:21:15.963Z,14.41
2022-09-12T00:23:42.915Z,14.36
2022-09-12T00:26:09.947Z,14.29
2022-09-12T00:28:37.667Z,14.31
2022-09-12T00:31:06.816Z,14.31
2022-09-12T00:33:34.184Z,14.27
2022-09-12T00:36:04.481Z,14.22
2022-09-12T00:38:31.509Z,14.18
2022-09-12T00:40:58.320Z,14.19
2022-09-12T00:43:31.179Z,14.22
2022-09-12T00:45:59.160Z,14.12
2022-09-12T00:48:32.528Z,14.12
2022-09-12T00:50:59.843Z,14.03
2022-09-12T00:53:26.723Z,13.99
2022-09-12T00:55:55.876Z,13.91
2022-09-12T00:58:24.645Z,13.82
2022-09-12T01:00:51.760Z,13.79
2022-09-12T01:03:19.765Z,13.77
2022-09-12T01:06:09.641Z,13.84
2022-09-12T01:08:41.109Z,13.80
2022-09-12T01:11:09.868Z,13.84
2022-09-12T01:13:36.957Z,13.92
2022-09-12T01:16:05.915Z,13.92
2022-09-12T01:18:42.490Z,13.90
2022-09-12T01:21:13.250Z,13.97
2022-09-12T01:23:45.850Z,13.94
2022-09-12T01:26:28.022Z,14.00
2022-09-12T01:29:00.982Z,13.88
2022-09-12T01:31:33.940Z,13.83
2022-09-12T01:34:19.532Z,13.81
2022-09-12T01:36:51.489Z,13.82
2022-09-12T01:39:27.164Z,13.77
2022-09-12T01:41:54.835Z,13.75
2022-09-12T01:44:34.020Z,13.75
2022-09-12T01:47:19.632Z,13.69
2022-09-12T01:49:49.520Z,13.67
2022-09-12T01:52:20.395Z,13.69
2022-09-12T01:54:51.011Z,13.72
2022-09-12T01:57:25.887Z,13.75
2022-09-12T01:59:55.007Z,13.81
2022-09-12T02:02:42.399Z,13.85
2022-09-12T02:05:17.946Z,13.87
2022-09-12T02:07:52.379Z,13.83
2022-09-12T02:10:32.231Z,13.81
2022-09-12T02:13:03.822Z,13.82
2022-09-12T02:15:34.465Z,13.75
2022-09-12T02:18:02.555Z,13.70
2022-09-12T02:20:47.433Z,13.72
2022-09-12T02:23:18.905Z,13.70
2022-09-12T02:25:47.498Z,13.70
2022-09-12T02:28:17.503Z,13.67
2022-09-12T02:31:07.629Z,13.58
2022-09-12T02:33:44.276Z,13.59
2022-09-12T02:36:15.658Z,13.52
2022-09-12T02:38:47.265Z,13.55
2022-09-12T02:41:16.027Z,13.53
2022-09-12T02:43:42.941Z,13.49
2022-09-12T02:46:18.916Z,13.47
2022-09-12T02:48:45.782Z,13.44
2022-09-12T02:51:13.100Z,13.48
2022-09-12T02:53:40.797Z,13.51
2022-09-12T02:56:09.747Z,13.52
2022-09-12T02:58:36.765Z,13.55
2022-09-12T03:01:21.364Z,13.62
2022-09-12T03:04:00.443Z,13.77
2022-09-12T03:06:27.243Z,13.82
2022-09-12T03:09:00.695Z,13.84
2022-09-12T03:11:51.073Z,13.83
2022-09-12T03:14:24.240Z,13.76
2022-09-12T03:16:51.478Z,13.70
2022-09-12T03:19:24.510Z,13.61
2022-09-12T03:21:51.390Z,13.57
2022-09-12T03:24:21.159Z,13.53
2022-09-12T03:26:50.840Z,13.52
2022-09-12T03:29:18.740Z,13.52
2022-09-12T03:31:52.709Z,13.49
2022-09-12T03:34:20.698Z,13.48
2022-09-12T03:36:47.910Z,13.55
2022-09-12T03:39:14.884Z,13.55
2022-09-12T03:41:41.898Z,13.58
2022-09-12T03:44:08.717Z,13.60
2022-09-12T03:46:36.030Z,13.61
2022-09-12T03:49:02.908Z,13.56
2022-09-12T03:51:29.757Z,13.56
2022-09-12T03:53:56.712Z,13.49
2022-09-12T03:56:23.637Z,13.47
2022-09-12T03:58:50.533Z,13.51
2022-09-12T04:01:18.516Z,13.66
2022-09-12T04:03:47.187Z,13.68
2022-09-12T04:06:15.863Z,13.59
2022-09-12T04:08:43.455Z,13.47
2022-09-12T04:11:11.788Z,13.41
2022-09-12T04:13:39.727Z,13.42
2022-09-12T04:16:06.937Z,13.30
2022-09-12T04:18:33.801Z,13.30
2022-09-12T04:21:04.380Z,13.26
2022-09-12T04:23:31.265Z,13.26
2022-09-12T04:25:59.062Z,13.23
2022-09-12T04:28:26.784Z,13.24
2022-09-12T04:30:53.702Z,13.21
2022-09-12T04:33:20.778Z,13.20
2022-09-12T04:35:48.241Z,13.21
2022-09-12T04:38:15.085Z,13.19
2022-09-12T04:40:41.922Z,13.21
2022-09-12T04:43:14.267Z,13.19
2022-09-12T04:45:41.569Z,13.14
2022-09-12T04:48:08.437Z,13.18
2022-09-12T04:50:35.296Z,13.14
2022-09-12T04:53:02.108Z,13.16
2022-09-12T04:55:29.175Z,13.12
2022-09-12T04:57:56.161Z,13.08
2022-09-12T05:00:22.976Z,13.10
2022-09-12T05:02:49.947Z,13.12
2022-09-12T05:05:17.757Z,13.14
2022-09-12T05:07:44.710Z,13.23
2022-09-12T05:10:12.294Z,13.25
2022-09-12T05:12:39.435Z,13.29
2022-09-12T05:15:06.724Z,13.30
2022-09-12T05:17:33.593Z,13.33
2022-09-12T05:20:00.922Z,13.41
2022-09-12T05:22:27.905Z,13.45
2022-09-12T05:24:54.719Z,13.50
2022-09-12T05:27:21.798Z,13.63
2022-09-12T05:29:48.673Z,13.70
2022-09-12T05:32:15.576Z,13.73
2022-09-12T05:34:42.432Z,13.87
2022-09-12T05:37:09.261Z,14.00
2022-09-12T05:39:36.154Z,14.16
2022-09-12T05:42:03.674Z,14.29
2022-09-12T05:44:30.644Z,14.37
2022-09-12T05:46:57.804Z,14.52
2022-09-12T05:49:24.787Z,14.59
2022-09-12T05:51:51.907Z,14.69
2022-09-12T05:54:20.680Z,14.77
2022-09-12T05:56:48.569Z,14.84
2022-09-12T05:59:18.953Z,14.90
2022-09-12T06:01:46.440Z,14.98
2022-09-12T06:04:13.581Z,15.04
2022-09-12T06:06:42.012Z,15.13
2022-09-12T06:09:09.396Z,15.24
2022-09-12T06:11:37.523Z,15.29
2022-09-12T06:14:04.888Z,15.37
2022-09-12T06:16:33.103Z,15.43
2022-09-12T06:19:01.164Z,15.55
2022-09-12T06:21:29.012Z,15.66
2022-09-12T06:23:55.911Z,15.69
2022-09-12T06:26:24.322Z,15.74
2022-09-12T06:28:52.159Z,15.80
2022-09-12T06:31:20.769Z,15.86
2022-09-12T06:33:49.455Z,15.98
2022-09-12T06:36:21.416Z,16.07
2022-09-12T06:38:51.649Z,16.06
2022-09-12T06:41:18.502Z,16.16
2022-09-12T06:43:45.405Z,16.28
2022-09-12T06:46:13.403Z,16.33
2022-09-12T06:48:42.076Z,16.34
2022-09-12T06:51:20.267Z,16.37
2022-09-12T06:53:48.163Z,16.45
2022-09-12T06:56:16.494Z,16.55
2022-09-12T06:58:44.026Z,16.56
2022-09-12T07:01:18.309Z,16.68
2022-09-12T07:03:49.806Z,16.74
2022-09-12T07:06:18.412Z,16.80
2022-09-12T07:08:45.806Z,16.88
2022-09-12T07:11:17.258Z,16.94
2022-09-12T07:13:45.297Z,17.02
2022-09-12T07:16:17.321Z,17.05
2022-09-12T07:18:50.067Z,17.16
2022-09-12T07:21:16.983Z,17.15
2022-09-12T07:23:45.048Z,17.24
2022-09-12T07:26:12.891Z,17.28
2022-09-12T07:28:40.040Z,17.27
2022-09-12T07:31:07.370Z,17.32
2022-09-12T07:33:34.673Z,17.34
2022-09-12T07:36:03.828Z,17.41
2022-09-12T07:38:31.283Z,17.55
2022-09-12T07:40:59.075Z,17.58
2022-09-12T07:43:26.051Z,17.54
2022-09-12T07:45:56.861Z,17.71
2022-09-12T07:48:24.003Z,17.89
2022-09-12T07:51:04.846Z,18.04
2022-09-12T07:53:33.461Z,18.15
2022-09-12T07:56:00.653Z,18.23
2022-09-12T07:58:27.557Z,18.20
2022-09-12T08:00:54.419Z,18.32
2022-09-12T08:03:21.273Z,18.26
2022-09-12T08:05:48.232Z,18.25
2022-09-12T08:08:15.331Z,18.40
2022-09-12T08:10:42.318Z,18.53
2022-09-12T08:13:10.786Z,18.50
2022-09-12T08:15:37.911Z,18.70
2022-09-12T08:18:04.847Z,18.80
2022-09-12T08:20:31.955Z,18.91
2022-09-12T08:22:58.847Z,18.88
2022-09-12T08:25:26.292Z,18.94
2022-09-12T08:27:53.221Z,19.02
2022-09-12T08:30:20.095Z,18.91
2022-09-12T08:32:47.519Z,18.91
2022-09-12T08:35:15.560Z,19.11
2022-09-12T08:37:42.481Z,19.12
2022-09-12T08:40:15.075Z,19.05
2022-09-12T08:43:02.334Z,19.22
2022-09-12T08:45:33.405Z,19.17
2022-09-12T08:48:03.384Z,19.33
2022-09-12T08:50:30.400Z,19.40
2022-09-12T08:53:06.711Z,19.39
2022-09-12T08:55:49.456Z,19.41
2022-09-12T08:58:21.156Z,19.50
2022-09-12T09:00:59.631Z,19.69
2022-09-12T09:03:35.519Z,19.60
2022-09-12T09:06:07.433Z,19.66
2022-09-12T09:08:39.009Z,19.71
2022-09-12T09:11:24.691Z,19.81
2022-09-12T09:14:22.458Z,19.75
2022-09-12T09:16:50.892Z,19.90
2022-09-12T09:19:24.422Z,19.88
2022-09-12T09:21:59.991Z,19.80
2022-09-12T09:24:47.215Z,19.83
2022-09-12T09:27:40.575Z,19.94
2022-09-12T09:30:19.043Z,19.95
2022-09-12T09:32:54.736Z,20.03
2022-09-12T09:35:40.470Z,20.16
2022-09-12T09:38:13.304Z,20.34
2022-09-12T09:40:51.175Z,20.28
2022-09-12T09:43:25.737Z,20.47
2022-09-12T09:45:52.993Z,20.40
2022-09-12T09:48:22.872Z,20.49
2022-09-12T09:50:50.103Z,20.51
2022-09-12T09:53:27.421Z,20.66
2022-09-12T09:55:55.852Z,20.76
2022-09-12T09:58:35.585Z,20.80
2022-09-12T10:01:06.545Z,20.81
2022-09-12T10:03:34.728Z,20.89
2022-09-12T10:06:21.977Z,21.04
2022-09-12T10:08:49.968Z,21.01
2022-09-12T10:11:16.837Z,20.97
2022-09-12T10:13:57.915Z,20.86
2022-09-12T10:16:28.022Z,21.03
2022-09-12T10:18:56.680Z,21.11
2022-09-12T10:21:34.317Z,20.95
2022-09-12T10:24:07.576Z,20.92
2022-09-12T10:26:39.651Z,20.91
2022-09-12T10:29:20.066Z,20.92
2022-09-12T10:31:54.414Z,20.92
2022-09-12T10:34:21.415Z,21.13
2022-09-12T10:36:48.340Z,21.12
2022-09-12T10:39:18.764Z,21.35
2022-09-12T10:41:46.149Z,21.66
2022-09-12T10:44:17.519Z,21.92
2022-09-12T10:46:44.634Z,21.94
2022-09-12T10:49:17.543Z,21.69
2022-09-12T10:51:44.448Z,21.84
2022-09-12T10:54:13.384Z,22.08
2022-09-12T10:56:48.233Z,22.27
2022-09-12T10:59:21.276Z,22.17
2022-09-12T11:01:57.387Z,21.89
2022-09-12T11:04:44.481Z,22.06
2022-09-12T11:07:22.097Z,22.08
2022-09-12T11:09:54.954Z,22.33
2022-09-12T11:12:31.379Z,22.17
2022-09-12T11:15:01.041Z,22.34
2022-09-12T11:17:52.423Z,22.57
2022-09-12T11:20:42.550Z,22.61
2022-09-12T11:23:23.768Z,22.55
2022-09-12T11:25:50.578Z,22.56
2022-09-12T11:28:36.130Z,22.92
2022-09-12T11:31:03.099Z,22.94
2022-09-12T11:34:02.398Z,22.88
2022-09-12T11:36:47.781Z,23.05
2022-09-12T11:39:14.821Z,23.56
2022-09-12T11:41:43.434Z,23.41
2022-09-12T11:44:17.646Z,23.09
2022-09-12T11:46:48.727Z,23.64
2022-09-12T11:49:37.167Z,24.17
2022-09-12T11:52:18.863Z,24.16
2022-09-12T11:55:00.735Z,23.23
2022-09-12T11:57:30.306Z,23.54
2022-09-12T12:00:06.254Z,23.43
2022-09-12T12:02:53.349Z,23.33
2022-09-12T12:05:22.493Z,22.81
2022-09-12T18:45:18.743Z,18.46
2022-09-12T18:47:46.027Z,18.47
2022-09-12T18:50:13.374Z,18.33
2022-09-12T18:52:40.543Z,18.27
2022-09-12T18:55:07.900Z,18.19
2022-09-12T18:57:35.711Z,18.07
2022-09-12T19:00:06.468Z,18.07
2022-09-12T19:02:36.538Z,17.99
2022-09-12T19:05:03.829Z,17.84
2022-09-12T19:07:31.009Z,17.79
2022-09-12T19:09:59.520Z,17.78
2022-09-12T19:12:26.782Z,17.65
2022-09-12T19:14:54.241Z,17.59
2022-09-12T19:17:21.918Z,17.55
2022-09-12T19:19:49.139Z,17.36
